Time;durP1;ratioP1;P1;durP2;ratioP2;P2;SDS_P1;SDS_P2;PMS_P1;PMS_P2;Temp;Humidity;BMP_temperature;BMP_pressure;BME280_temperature;BME280_humidity;BME280_pressure;Samples;Min_cycle;Max_cycle;Signal;HPM_P1;HPM_P2
2022/09/02 00:01:16;;;;;;;;;;;24.70;61.30;;;;;;6240990;28;20005;-42
2022/09/02 00:04:19;;;;;;;;;;;24.40;61.20;;;;;;6250939;28;20023;-44
2022/09/02 00:07:20;;;;;;;;;;;24.70;61.30;;;;;;6227492;28;19972;-44
2022/09/02 00:10:25;;;;;;;;;;;24.70;61.40;;;;;;6250901;28;19932;-42
2022/09/02 00:13:27;;;;;;;;;;;25.00;61.50;;;;;;6251938;28;19938;-41
2022/09/02 00:16:30;;;;;;;;;;;24.70;61.30;;;;;;6250824;28;20629;-41
2022/09/02 00:19:32;;;;;;;;;;;24.60;61.20;;;;;;6232946;28;19989;-41
2022/09/02 00:22:33;;;;;;;;;;;24.50;61.20;;;;;;6246037;28;19924;-41
2022/09/02 00:25:35;;;;;;;;;;;24.50;61.40;;;;;;6248677;28;19924;-42
2022/09/02 00:28:38;;;;;;;;;;;24.70;61.40;;;;;;6247863;28;19939;-44
2022/09/02 00:31:56;;;;;;;;;;;24.60;61.40;;;;;;6232372;28;19929;-42
2022/09/02 00:34:58;;;;;;;;;;;24.50;61.40;;;;;;6241636;28;19928;-42
2022/09/02 00:38:00;;;;;;;;;;;24.50;61.50;;;;;;6243126;28;20768;-42
2022/09/02 00:41:03;;;;;;;;;;;24.90;61.70;;;;;;6244773;28;20009;-41
2022/09/02 00:44:06;;;;;;;;;;;25.10;61.40;;;;;;6245928;28;20001;-44
2022/09/02 00:47:08;;;;;;;;;;;25.20;61.80;;;;;;6247899;28;20010;-41
2022/09/02 00:50:10;;;;;;;;;;;24.50;61.50;;;;;;6247137;28;19928;-41
2022/09/02 00:53:12;;;;;;;;;;;24.80;61.50;;;;;;6250579;28;19928;-43
2022/09/02 00:56:17;;;;;;;;;;;24.60;61.50;;;;;;6248698;28;19977;-41
2022/09/02 00:59:23;;;;;;;;;;;24.90;61.60;;;;;;6251314;28;20052;-44
2022/09/02 01:02:30;;;;;;;;;;;24.40;61.40;;;;;;6228406;28;20047;-41
2022/09/02 01:05:33;;;;;;;;;;;24.40;61.40;;;;;;6246682;28;20054;-41
2022/09/02 01:08:38;;;;;;;;;;;24.90;61.60;;;;;;6248042;28;20842;-45
2022/09/02 01:11:46;;;;;;;;;;;24.60;61.50;;;;;;6248134;28;19975;-41
2022/09/02 01:14:49;;;;;;;;;;;24.90;61.50;;;;;;6248447;28;19939;-41
2022/09/02 01:17:51;;;;;;;;;;;24.60;61.50;;;;;;6250575;28;19936;-41
2022/09/02 01:20:52;;;;;;;;;;;24.60;61.60;;;;;;6230630;28;19939;-42
2022/09/02 01:23:54;;;;;;;;;;;24.80;61.80;;;;;;6246627;28;19994;-42
2022/09/02 01:26:57;;;;;;;;;;;24.60;61.70;;;;;;6247267;28;19936;-43
2022/09/02 01:29:59;;;;;;;;;;;24.80;61.70;;;;;;6247148;28;19999;-41
2022/09/02 01:33:00;;;;;;;;;;;24.50;61.40;;;;;;6250477;28;20015;-43
2022/09/02 01:36:03;;;;;;;;;;;24.60;61.70;;;;;;6243911;28;19925;-41
2022/09/02 01:39:05;;;;;;;;;;;24.50;61.50;;;;;;6246782;28;19932;-43
2022/09/02 01:42:08;;;;;;;;;;;24.50;61.60;;;;;;6249264;28;20966;-42
2022/09/02 01:45:09;;;;;;;;;;;25.00;61.60;;;;;;6239006;28;19974;-42
2022/09/02 01:48:11;;;;;;;;;;;24.50;61.60;;;;;;6240925;28;19932;-41
2022/09/02 01:51:15;;;;;;;;;;;24.80;61.80;;;;;;6236562;28;19939;-44
2022/09/02 01:54:18;;;;;;;;;;;24.70;61.70;;;;;;6225996;28;20944;-42
2022/09/02 01:57:19;;;;;;;;;;;24.30;61.60;;;;;;6241887;28;19939;-42
2022/09/02 02:00:21;;;;;;;;;;;24.70;61.80;;;;;;6231410;28;21300;-42
2022/09/02 02:03:26;;;;;;;;;;;24.50;61.80;;;;;;6228260;28;20001;-42
2022/09/02 02:06:31;;;;;;;;;;;24.50;61.70;;;;;;6241469;28;19928;-41
2022/09/02 02:09:34;;;;;;;;;;;24.50;61.80;;;;;;6245876;28;19939;-42
2022/09/02 02:12:40;;;;;;;;;;;24.70;61.80;;;;;;6247334;28;19924;-41
2022/09/02 02:15:42;;;;;;;;;;;24.90;61.80;;;;;;6244225;28;19939;-41
2022/09/02 02:18:44;;;;;;;;;;;24.70;61.70;;;;;;6224487;28;19931;-43
2022/09/02 02:21:46;;;;;;;;;;;24.60;61.70;;;;;;6245677;28;19975;-42
2022/09/02 02:24:48;;;;;;;;;;;24.70;61.80;;;;;;6240544;28;19924;-41
2022/09/02 02:27:50;;;;;;;;;;;24.70;62.20;;;;;;6244719;28;20050;-42
2022/09/02 02:30:51;;;;;;;;;;;24.90;62.00;;;;;;6242356;28;21675;-43
2022/09/02 02:33:53;;;;;;;;;;;24.20;61.70;;;;;;6243274;28;19932;-46
2022/09/02 02:36:55;;;;;;;;;;;24.30;61.90;;;;;;6240374;28;19925;-46
2022/09/02 02:39:57;;;;;;;;;;;24.30;61.90;;;;;;6245943;28;19978;-41
2022/09/02 02:43:01;;;;;;;;;;;24.40;61.90;;;;;;6250885;28;19932;-42
2022/09/02 02:46:02;;;;;;;;;;;24.80;62.00;;;;;;6243212;28;19979;-43
2022/09/02 02:49:04;;;;;;;;;;;24.40;61.80;;;;;;6243753;28;19975;-45
2022/09/02 02:52:07;;;;;;;;;;;24.40;61.80;;;;;;6222562;28;19982;-42
2022/09/02 02:55:10;;;;;;;;;;;24.60;61.90;;;;;;6239832;28;20043;-42
2022/09/02 02:58:11;;;;;;;;;;;24.30;61.90;;;;;;6235409;28;20021;-41
2022/09/02 03:01:17;;;;;;;;;;;24.40;62.00;;;;;;6243383;28;19925;-44
2022/09/02 03:04:19;;;;;;;;;;;24.30;61.90;;;;;;6253626;28;19932;-43
2022/09/02 03:07:20;;;;;;;;;;;24.50;62.00;;;;;;6251219;28;19925;-42
2022/09/02 03:10:23;;;;;;;;;;;24.40;62.00;;;;;;6247875;28;19932;-42
2022/09/02 03:13:25;;;;;;;;;;;24.40;61.90;;;;;;6247043;28;20788;-43
2022/09/02 03:16:28;;;;;;;;;;;24.70;62.10;;;;;;6250878;28;19939;-42
2022/09/02 03:19:29;;;;;;;;;;;24.50;62.10;;;;;;6248765;28;20054;-39
2022/09/02 03:22:31;;;;;;;;;;;24.40;62.00;;;;;;6250135;28;19938;-40
2022/09/02 03:25:34;;;;;;;;;;;24.70;62.20;;;;;;6245614;28;20804;-40
2022/09/02 03:28:44;;;;;;;;;;;24.30;61.80;;;;;;6230743;28;19964;-39
2022/09/02 03:31:46;;;;;;;;;;;24.70;62.20;;;;;;6241199;28;19932;-39
2022/09/02 03:34:48;;;;;;;;;;;24.70;61.90;;;;;;6246894;28;19924;-41
2022/09/02 03:37:51;;;;;;;;;;;24.80;62.00;;;;;;6243792;28;19928;-39
2022/09/02 03:40:53;;;;;;;;;;;24.30;61.50;;;;;;6233190;28;20016;-39
2022/09/02 03:43:56;;;;;;;;;;;24.40;61.60;;;;;;6232110;28;19991;-40
2022/09/02 03:46:58;;;;;;;;;;;24.30;61.20;;;;;;6229411;28;19939;-39
2022/09/02 03:49:59;;;;;;;;;;;24.20;61.60;;;;;;6230150;28;19940;-39
2022/09/02 03:53:02;;;;;;;;;;;24.60;61.80;;;;;;6229126;28;19940;-38
2022/09/02 03:56:05;;;;;;;;;;;24.40;61.70;;;;;;6212116;28;19932;-39
2022/09/02 03:59:06;;;;;;;;;;;24.20;61.60;;;;;;6233223;28;20611;-39
2022/09/02 04:02:08;;;;;;;;;;;24.40;61.80;;;;;;6231051;28;20021;-39
2022/09/02 04:05:11;;;;;;;;;;;24.20;61.70;;;;;;6230051;28;19951;-39
2022/09/02 04:08:17;;;;;;;;;;;24.70;62.00;;;;;;6217562;28;20010;-39
2022/09/02 04:11:20;;;;;;;;;;;24.30;61.80;;;;;;6229697;28;19932;-39
2022/09/02 04:14:26;;;;;;;;;;;24.50;62.00;;;;;;6216869;28;19929;-39
2022/09/02 04:17:27;;;;;;;;;;;24.30;61.80;;;;;;6226536;28;20817;-39
2022/09/02 04:20:29;;;;;;;;;;;24.70;62.10;;;;;;6228556;28;19933;-39
2022/09/02 04:23:31;;;;;;;;;;;24.30;61.90;;;;;;6224332;28;21690;-38
2022/09/02 04:26:34;;;;;;;;;;;24.70;62.10;;;;;;6208511;28;20009;-39
2022/09/02 04:29:35;;;;;;;;;;;24.30;61.90;;;;;;6224244;28;19978;-39
2022/09/02 04:32:37;;;;;;;;;;;24.70;62.10;;;;;;6232046;28;19933;-39
2022/09/02 04:35:43;;;;;;;;;;;24.10;61.90;;;;;;6229859;28;20035;-40
2022/09/02 04:38:45;;;;;;;;;;;24.50;62.10;;;;;;6225513;28;20801;-39
2022/09/02 04:41:50;;;;;;;;;;;24.20;61.90;;;;;;6227193;28;19939;-39
2022/09/02 04:44:53;;;;;;;;;;;24.50;62.20;;;;;;6227436;28;19940;-39
2022/09/02 04:47:56;;;;;;;;;;;24.50;62.00;;;;;;6228599;28;19938;-39
2022/09/02 04:51:02;;;;;;;;;;;24.50;62.00;;;;;;6233291;28;19944;-39
2022/09/02 04:54:06;;;;;;;;;;;24.20;61.80;;;;;;6233411;28;20046;-39
2022/09/02 04:57:10;;;;;;;;;;;24.50;62.00;;;;;;6229364;28;19932;-39
2022/09/02 05:00:13;;;;;;;;;;;24.30;62.00;;;;;;6233982;28;19932;-40
2022/09/02 05:03:14;;;;;;;;;;;24.40;62.60;;;;;;6231173;28;19983;-39
2022/09/02 05:06:21;;;;;;;;;;;24.70;62.40;;;;;;6232512;28;19932;-39
2022/09/02 05:09:23;;;;;;;;;;;24.30;62.00;;;;;;6230764;28;19971;-39
2022/09/02 05:12:31;;;;;;;;;;;24.10;62.00;;;;;;6236187;28;19972;-39
2022/09/02 05:15:38;;;;;;;;;;;24.50;62.10;;;;;;6231934;28;20029;-39
2022/09/02 05:18:41;;;;;;;;;;;24.70;62.20;;;;;;6235132;28;20944;-39
2022/09/02 05:21:43;;;;;;;;;;;24.40;62.30;;;;;;6231196;28;20763;-39
2022/09/02 05:24:49;;;;;;;;;;;24.20;62.00;;;;;;6236635;28;19932;-40
2022/09/02 05:27:51;;;;;;;;;;;24.50;62.30;;;;;;6235092;28;20013;-39
2022/09/02 05:30:53;;;;;;;;;;;24.60;62.10;;;;;;6236024;28;22034;-39
2022/09/02 05:33:56;;;;;;;;;;;24.30;62.10;;;;;;6231496;28;19937;-39
2022/09/02 05:36:57;;;;;;;;;;;24.70;62.30;;;;;;6232282;28;19939;-39
2022/09/02 05:40:04;;;;;;;;;;;24.10;62.00;;;;;;6230332;28;19981;-39
2022/09/02 05:43:09;;;;;;;;;;;24.50;62.20;;;;;;6229108;28;19936;-41
2022/09/02 05:46:16;;;;;;;;;;;24.30;62.20;;;;;;6228207;28;20055;-39
2022/09/02 05:49:20;;;;;;;;;;;24.30;62.10;;;;;;6212704;28;19936;-41
2022/09/02 05:52:27;;;;;;;;;;;24.40;62.30;;;;;;6225728;28;19932;-39
2022/09/02 05:55:30;;;;;;;;;;;24.40;62.30;;;;;;6226688;28;19932;-39
2022/09/02 05:58:32;;;;;;;;;;;24.10;62.10;;;;;;6225114;28;19939;-39
2022/09/02 06:01:34;;;;;;;;;;;24.30;62.10;;;;;;6226732;28;19993;-39
2022/09/02 06:04:36;;;;;;;;;;;24.10;61.90;;;;;;6205487;28;21054;-40
2022/09/02 06:07:38;;;;;;;;;;;24.80;62.30;;;;;;6216321;28;20906;-39
2022/09/02 06:10:42;;;;;;;;;;;24.20;62.10;;;;;;6210264;28;19932;-39
2022/09/02 06:13:47;;;;;;;;;;;24.00;61.90;;;;;;6198319;28;19933;-39
2022/09/02 06:16:49;;;;;;;;;;;24.40;62.20;;;;;;6208993;28;20767;-39
2022/09/02 06:19:57;;;;;;;;;;;24.70;62.30;;;;;;6188582;28;19932;-39
2022/09/02 06:23:02;;;;;;;;;;;24.40;62.30;;;;;;6191030;28;19932;-39
2022/09/02 06:26:05;;;;;;;;;;;24.20;62.10;;;;;;6206991;28;19932;-39
2022/09/02 06:29:07;;;;;;;;;;;24.40;62.40;;;;;;6191772;28;19932;-39
2022/09/02 06:32:10;;;;;;;;;;;24.50;62.40;;;;;;6181590;28;20858;-39
2022/09/02 06:35:12;;;;;;;;;;;24.50;62.50;;;;;;6180332;28;19940;-39
2022/09/02 06:38:18;;;;;;;;;;;24.30;62.40;;;;;;6166866;28;19995;-39
2022/09/02 06:41:22;;;;;;;;;;;24.10;62.20;;;;;;6155665;28;20272;-39
2022/09/02 06:44:26;;;;;;;;;;;24.50;62.40;;;;;;6148414;28;19939;-39
2022/09/02 06:47:30;;;;;;;;;;;24.40;62.40;;;;;;6160970;28;19932;-39
2022/09/02 06:50:36;;;;;;;;;;;24.50;61.60;;;;;;6156481;28;19978;-39
2022/09/02 06:53:39;;;;;;;;;;;24.00;62.20;;;;;;6128732;28;21277;-39
2022/09/02 06:56:41;;;;;;;;;;;24.50;62.50;;;;;;6124298;28;19936;-39
2022/09/02 06:59:51;;;;;;;;;;;24.30;62.30;;;;;;6112258;28;19967;-39
2022/09/02 07:06:12;;;;;;;;;;;24.90;62.50;;;;;;6087452;28;21004;-40
2022/09/02 07:09:19;;;;;;;;;;;24.80;62.50;;;;;;6082315;28;19991;-39
2022/09/02 07:12:21;;;;;;;;;;;24.20;62.70;;;;;;6079143;28;26293;-39
2022/09/02 07:15:29;;;;;;;;;;;24.70;62.30;;;;;;6075402;28;19932;-39
2022/09/02 07:18:31;;;;;;;;;;;24.50;62.00;;;;;;6097672;28;19936;-39
2022/09/02 07:21:32;;;;;;;;;;;24.60;62.10;;;;;;6094300;28;19932;-41
2022/09/02 07:24:35;;;;;;;;;;;24.60;61.80;;;;;;6088332;28;20007;-39
2022/09/02 07:27:37;;;;;;;;;;;24.70;61.90;;;;;;6093845;28;20350;-40
2022/09/02 07:30:40;;;;;;;;;;;25.00;62.00;;;;;;6107146;28;19939;-39
2022/09/02 07:33:47;;;;;;;;;;;24.50;61.50;;;;;;6070498;28;19940;-39
2022/09/02 07:36:51;;;;;;;;;;;24.80;61.70;;;;;;6090684;28;19946;-39
2022/09/02 07:39:55;;;;;;;;;;;24.80;61.70;;;;;;6067951;28;21117;-39
2022/09/02 07:42:56;;;;;;;;;;;25.00;61.70;;;;;;6069709;28;19944;-39
2022/09/02 07:46:04;;;;;;;;;;;24.90;61.80;;;;;;6042189;28;20070;-39
2022/09/02 07:49:09;;;;;;;;;;;24.30;61.20;;;;;;6071240;28;20061;-39
2022/09/02 07:52:11;;;;;;;;;;;24.90;60.70;;;;;;6069549;28;21941;-38
2022/09/02 07:55:13;;;;;;;;;;;24.60;61.40;;;;;;6074376;28;19939;-39
2022/09/02 07:58:19;;;;;;;;;;;25.00;61.70;;;;;;6115470;28;19932;-40
2022/09/02 08:01:21;;;;;;;;;;;24.80;61.40;;;;;;6053015;28;19936;-39
2022/09/02 08:04:26;;;;;;;;;;;24.40;61.20;;;;;;6030660;28;20038;-39
2022/09/02 08:07:28;;;;;;;;;;;24.90;61.70;;;;;;6051356;28;22808;-39
2022/09/02 08:10:31;;;;;;;;;;;24.90;61.60;;;;;;6059031;28;19932;-39
2022/09/02 08:13:32;;;;;;;;;;;24.90;61.50;;;;;;6064078;28;20066;-39
2022/09/02 08:16:34;;;;;;;;;;;25.00;61.70;;;;;;6066735;28;20411;-39
2022/09/02 08:19:36;;;;;;;;;;;24.50;61.30;;;;;;6082695;28;25304;-39
2022/09/02 08:22:38;;;;;;;;;;;25.00;61.70;;;;;;6047721;28;21579;-39
2022/09/02 08:25:41;;;;;;;;;;;24.90;61.60;;;;;;6051223;28;20373;-40
2022/09/02 08:28:42;;;;;;;;;;;25.00;62.00;;;;;;6042458;28;20377;-39
2022/09/02 08:31:44;;;;;;;;;;;25.00;61.70;;;;;;6025954;28;20670;-40
2022/09/02 08:34:46;;;;;;;;;;;25.00;61.50;;;;;;6017021;28;19932;-38
2022/09/02 08:37:47;;;;;;;;;;;25.00;61.60;;;;;;6036678;28;20079;-39
2022/09/02 08:40:50;;;;;;;;;;;24.60;61.50;;;;;;6051091;28;19983;-39
2022/09/02 08:43:52;;;;;;;;;;;24.70;61.50;;;;;;6053387;28;19940;-39
2022/09/02 08:46:58;;;;;;;;;;;24.70;61.20;;;;;;6050533;28;20144;-39
2022/09/02 08:50:02;;;;;;;;;;;24.90;61.50;;;;;;6064004;28;19932;-39
2022/09/02 08:53:07;;;;;;;;;;;25.00;62.10;;;;;;6053060;28;19932;-38
2022/09/02 08:56:09;;;;;;;;;;;25.00;61.50;;;;;;6030477;28;21256;-39
2022/09/02 08:59:14;;;;;;;;;;;24.90;61.40;;;;;;6067398;28;22110;-39
2022/09/02 09:02:20;;;;;;;;;;;25.00;61.40;;;;;;6045030;28;19932;-39
2022/09/02 09:05:25;;;;;;;;;;;25.10;61.50;;;;;;6072538;28;19932;-39
2022/09/02 09:08:32;;;;;;;;;;;25.20;61.70;;;;;;6102220;28;19935;-39
2022/09/02 09:11:40;;;;;;;;;;;24.80;61.40;;;;;;6088668;28;19939;-39
2022/09/02 09:14:47;;;;;;;;;;;25.00;61.50;;;;;;6091226;28;19939;-39
2022/09/02 09:17:51;;;;;;;;;;;25.10;61.50;;;;;;6081015;28;19932;-39
2022/09/02 09:20:53;;;;;;;;;;;25.10;61.80;;;;;;6081810;28;20078;-39
2022/09/02 09:23:54;;;;;;;;;;;25.10;61.60;;;;;;6084394;28;19976;-39
2022/09/02 09:26:56;;;;;;;;;;;24.50;61.20;;;;;;6082030;28;19932;-39
2022/09/02 09:29:58;;;;;;;;;;;24.70;61.40;;;;;;6079804;28;19939;-39
2022/09/02 09:33:04;;;;;;;;;;;25.00;61.60;;;;;;6030352;28;21658;-39
2022/09/02 09:36:10;;;;;;;;;;;25.10;61.70;;;;;;6077729;28;20063;-40
2022/09/02 09:39:20;;;;;;;;;;;24.70;60.70;;;;;;6082524;28;20021;-42
2022/09/02 09:42:29;;;;;;;;;;;25.10;61.90;;;;;;6081055;28;20149;-40
2022/09/02 09:45:32;;;;;;;;;;;24.90;61.80;;;;;;6056610;28;21214;-40
2022/09/02 09:48:35;;;;;;;;;;;25.00;61.60;;;;;;6067515;28;19974;-40
2022/09/02 09:51:49;;;;;;;;;;;25.10;61.80;;;;;;6051058;28;20200;-39
2022/09/02 09:55:05;;;;;;;;;;;24.80;61.60;;;;;;6064062;28;20890;-40
2022/09/02 09:58:08;;;;;;;;;;;24.90;61.50;;;;;;6055378;28;22192;-40
2022/09/02 10:01:10;;;;;;;;;;;25.10;61.50;;;;;;6100312;28;21598;-40
2022/09/02 10:04:24;;;;;;;;;;;25.10;61.40;;;;;;6076258;28;19932;-39
2022/09/02 10:07:52;;;;;;;;;;;24.70;61.10;;;;;;6075956;28;19932;-41
2022/09/02 10:10:57;;;;;;;;;;;24.50;61.10;;;;;;6083845;28;19932;-39
2022/09/02 10:14:02;;;;;;;;;;;24.50;61.40;;;;;;6085110;28;32241;-40
2022/09/02 10:17:13;;;;;;;;;;;24.70;61.70;;;;;;6050095;28;22673;-40
2022/09/02 10:20:18;;;;;;;;;;;25.00;61.80;;;;;;6070764;28;19944;-40
2022/09/02 10:23:25;;;;;;;;;;;24.80;61.80;;;;;;6045113;28;20879;-40
2022/09/02 10:26:33;;;;;;;;;;;24.70;61.80;;;;;;6081567;28;19932;-40
2022/09/02 10:29:43;;;;;;;;;;;24.40;61.50;;;;;;6070506;28;19932;-40
2022/09/02 10:32:54;;;;;;;;;;;24.90;61.90;;;;;;6102344;28;20663;-40
2022/09/02 10:35:58;;;;;;;;;;;24.70;61.70;;;;;;6117681;28;19933;-40
2022/09/02 10:39:05;;;;;;;;;;;24.50;61.70;;;;;;6125548;28;19932;-40
2022/09/02 10:42:12;;;;;;;;;;;24.90;61.70;;;;;;6158981;28;19940;-40
2022/09/02 10:45:23;;;;;;;;;;;25.00;61.70;;;;;;6160783;28;21266;-41
2022/09/02 10:48:29;;;;;;;;;;;24.90;61.70;;;;;;6142557;28;19933;-42
2022/09/02 10:51:36;;;;;;;;;;;25.10;61.80;;;;;;6147996;28;19932;-42
2022/09/02 10:54:42;;;;;;;;;;;25.30;62.10;;;;;;6151055;28;20909;-41
2022/09/02 10:57:46;;;;;;;;;;;24.90;61.80;;;;;;6171606;28;19932;-40
2022/09/02 11:00:50;;;;;;;;;;;24.90;61.90;;;;;;6158009;28;20190;-40
2022/09/02 11:04:06;;;;;;;;;;;25.00;61.80;;;;;;6138200;28;20662;-40
2022/09/02 11:07:12;;;;;;;;;;;24.80;61.80;;;;;;6124259;28;19933;-40
2022/09/02 11:10:17;;;;;;;;;;;24.50;61.50;;;;;;6169275;28;19955;-40
2022/09/02 11:13:23;;;;;;;;;;;24.90;61.70;;;;;;6139231;28;20052;-40
2022/09/02 11:16:27;;;;;;;;;;;24.90;61.50;;;;;;6142881;28;20035;-41
2022/09/02 11:19:32;;;;;;;;;;;24.80;61.70;;;;;;6137871;28;19931;-40
2022/09/02 11:22:39;;;;;;;;;;;25.10;61.70;;;;;;6146669;28;20036;-40
2022/09/02 11:25:42;;;;;;;;;;;24.90;61.60;;;;;;6162678;28;19932;-39
2022/09/02 11:28:48;;;;;;;;;;;24.70;61.40;;;;;;6163743;28;19936;-39
2022/09/02 11:31:57;;;;;;;;;;;24.70;61.40;;;;;;6169986;28;19940;-40
2022/09/02 11:35:02;;;;;;;;;;;25.10;61.70;;;;;;6172344;28;19932;-40
2022/09/02 11:38:05;;;;;;;;;;;25.10;61.70;;;;;;6154516;28;20055;-40
2022/09/02 11:44:59;;;;;;;;;;;25.20;61.40;;;;;;6161948;28;20013;-39
2022/09/02 11:48:15;;;;;;;;;;;24.90;61.10;;;;;;6158587;28;21674;-40
2022/09/02 11:51:25;;;;;;;;;;;25.20;61.40;;;;;;6101081;28;21072;-40
2022/09/02 11:54:30;;;;;;;;;;;25.20;61.40;;;;;;6162628;28;20723;-40
2022/09/02 11:57:32;;;;;;;;;;;25.20;61.30;;;;;;6158549;28;19939;-39
2022/09/02 12:00:35;;;;;;;;;;;25.10;61.30;;;;;;6095884;28;20477;-40
2022/09/02 12:03:36;;;;;;;;;;;24.90;60.90;;;;;;6104592;28;19932;-40
2022/09/02 12:07:09;;;;;;;;;;;25.10;61.10;;;;;;6064526;28;22072;-40
2022/09/02 12:10:36;;;;;;;;;;;25.30;61.20;;;;;;6058729;28;20050;-39
2022/09/02 12:13:39;;;;;;;;;;;25.20;61.10;;;;;;6069925;28;20493;-40
2022/09/02 12:16:42;;;;;;;;;;;25.60;61.40;;;;;;6110547;28;19939;-39
2022/09/02 12:19:45;;;;;;;;;;;25.30;61.20;;;;;;6065122;28;19932;-39
2022/09/02 12:22:48;;;;;;;;;;;25.40;61.10;;;;;;6052374;28;22371;-39
2022/09/02 12:25:55;;;;;;;;;;;25.00;60.60;;;;;;6060667;28;19982;-39
2022/09/02 12:29:10;;;;;;;;;;;25.60;60.90;;;;;;6082872;28;19932;-40
2022/09/02 12:32:33;;;;;;;;;;;25.40;60.50;;;;;;6066006;28;20070;-39
2022/09/02 12:35:48;;;;;;;;;;;25.50;60.60;;;;;;6048686;28;20971;-40
2022/09/02 12:38:51;;;;;;;;;;;25.50;60.30;;;;;;6086431;28;19940;-39
2022/09/02 12:41:55;;;;;;;;;;;25.50;60.40;;;;;;6044616;28;21504;-38
2022/09/02 12:45:03;;;;;;;;;;;25.80;60.40;;;;;;6081720;28;19932;-40
2022/09/02 12:48:08;;;;;;;;;;;25.70;60.20;;;;;;6098263;28;19936;-39
2022/09/02 12:51:10;;;;;;;;;;;25.60;60.70;;;;;;6060831;28;20016;-39
2022/09/02 12:54:14;;;;;;;;;;;25.80;60.20;;;;;;6075772;28;20054;-40
2022/09/02 12:57:16;;;;;;;;;;;25.80;60.20;;;;;;6105099;28;19932;-39
2022/09/02 13:00:30;;;;;;;;;;;25.40;59.80;;;;;;6081890;28;22206;-39
2022/09/02 13:03:38;;;;;;;;;;;25.80;60.00;;;;;;6100622;28;19939;-39
2022/09/02 13:06:53;;;;;;;;;;;25.90;60.00;;;;;;6091163;28;19932;-40
2022/09/02 13:10:09;;;;;;;;;;;26.00;60.10;;;;;;6104355;28;19939;-40
2022/09/02 13:13:18;;;;;;;;;;;25.60;59.90;;;;;;6054023;28;20702;-40
2022/09/02 13:16:29;;;;;;;;;;;25.80;60.00;;;;;;6054544;28;21640;-40
2022/09/02 13:19:40;;;;;;;;;;;25.80;60.00;;;;;;6078639;28;19995;-40
2022/09/02 13:22:53;;;;;;;;;;;25.80;60.10;;;;;;6064712;28;21493;-41
2022/09/02 13:26:05;;;;;;;;;;;26.20;60.40;;;;;;6067450;28;22629;-42
2022/09/02 13:29:17;;;;;;;;;;;26.00;60.30;;;;;;6075411;28;19932;-39
2022/09/02 13:32:22;;;;;;;;;;;25.80;60.20;;;;;;6096121;28;19974;-40
2022/09/02 13:35:25;;;;;;;;;;;25.70;60.00;;;;;;6081642;28;21104;-39
2022/09/02 13:38:27;;;;;;;;;;;26.00;60.10;;;;;;6094628;28;19932;-39
2022/09/02 13:41:30;;;;;;;;;;;25.90;60.00;;;;;;6095387;28;20140;-41
2022/09/02 13:44:31;;;;;;;;;;;25.90;59.90;;;;;;6080446;28;19932;-45
2022/09/02 13:47:33;;;;;;;;;;;25.70;59.80;;;;;;6079211;28;19975;-41
2022/09/02 13:50:35;;;;;;;;;;;25.80;60.40;;;;;;6102439;28;20062;-43
2022/09/02 13:53:37;;;;;;;;;;;25.80;59.70;;;;;;6078197;28;19933;-43
2022/09/02 13:57:00;;;;;;;;;;;26.10;59.90;;;;;;6077282;28;19931;-41
2022/09/02 14:00:02;;;;;;;;;;;25.70;59.60;;;;;;6084102;28;21132;-42
2022/09/02 14:03:16;;;;;;;;;;;26.00;59.70;;;;;;6080619;28;19939;-42
2022/09/02 14:06:18;;;;;;;;;;;26.00;59.70;;;;;;6091607;28;19938;-44
2022/09/02 14:09:23;;;;;;;;;;;26.10;59.80;;;;;;6082347;28;19932;-42
2022/09/02 14:12:26;;;;;;;;;;;26.10;59.90;;;;;;6096338;28;19935;-41
2022/09/02 14:15:28;;;;;;;;;;;25.70;59.40;;;;;;6065811;28;19946;-42
2022/09/02 14:18:31;;;;;;;;;;;26.00;59.60;;;;;;6087839;28;19932;-41
2022/09/02 14:21:34;;;;;;;;;;;26.10;59.60;;;;;;6078163;28;22391;-41
2022/09/02 14:24:38;;;;;;;;;;;26.00;59.60;;;;;;6086914;28;19933;-45
2022/09/02 14:27:47;;;;;;;;;;;26.10;59.70;;;;;;6092376;28;20082;-41
2022/09/02 14:30:55;;;;;;;;;;;26.00;59.70;;;;;;6081174;28;21319;-40
2022/09/02 14:33:57;;;;;;;;;;;26.10;59.80;;;;;;6097632;28;22463;-41
2022/09/02 14:36:58;;;;;;;;;;;26.10;59.90;;;;;;6104920;28;19971;-41
2022/09/02 14:40:05;;;;;;;;;;;26.00;60.00;;;;;;6116306;28;21033;-41
2022/09/02 14:43:10;;;;;;;;;;;26.00;59.80;;;;;;6096805;28;20928;-41
2022/09/02 14:46:20;;;;;;;;;;;25.80;59.70;;;;;;6109549;28;19932;-42
2022/09/02 14:49:24;;;;;;;;;;;26.10;59.90;;;;;;6092996;28;22539;-43
2022/09/02 14:52:27;;;;;;;;;;;26.00;59.80;;;;;;6095132;28;19936;-43
2022/09/02 14:55:38;;;;;;;;;;;25.80;59.60;;;;;;6098026;28;19971;-44
2022/09/02 14:58:40;;;;;;;;;;;26.00;59.80;;;;;;6088623;28;19936;-43
2022/09/02 15:01:42;;;;;;;;;;;26.10;59.90;;;;;;6100169;28;21313;-42
2022/09/02 15:04:44;;;;;;;;;;;26.00;59.70;;;;;;6114953;28;20002;-41
2022/09/02 15:07:46;;;;;;;;;;;26.00;59.80;;;;;;6117416;28;19939;-41
2022/09/02 15:10:48;;;;;;;;;;;25.80;59.70;;;;;;6114408;28;21358;-43
2022/09/02 15:13:49;;;;;;;;;;;26.00;60.00;;;;;;6125365;28;19936;-40
2022/09/02 15:16:50;;;;;;;;;;;25.90;60.00;;;;;;6120991;28;20886;-42
2022/09/02 15:19:52;;;;;;;;;;;25.90;59.90;;;;;;6111334;28;19932;-42
2022/09/02 15:22:54;;;;;;;;;;;25.80;59.90;;;;;;6090363;28;20330;-40
2022/09/02 15:25:58;;;;;;;;;;;26.00;60.00;;;;;;6118495;28;20327;-41
2022/09/02 15:29:00;;;;;;;;;;;25.80;59.90;;;;;;6109412;28;19971;-41
2022/09/02 15:32:03;;;;;;;;;;;25.90;60.10;;;;;;6110563;28;20046;-40
2022/09/02 15:35:06;;;;;;;;;;;25.40;59.70;;;;;;6110736;28;20121;-41
2022/09/02 15:38:07;;;;;;;;;;;25.80;60.00;;;;;;6085585;28;20267;-42
2022/09/02 15:41:10;;;;;;;;;;;25.40;59.80;;;;;;6113856;28;20287;-42
2022/09/02 15:44:11;;;;;;;;;;;25.90;60.10;;;;;;6128388;28;20362;-42
2022/09/02 15:47:14;;;;;;;;;;;25.70;60.10;;;;;;6136048;28;20087;-43
2022/09/02 15:50:16;;;;;;;;;;;26.10;60.30;;;;;;6145620;28;20082;-41
2022/09/02 15:53:21;;;;;;;;;;;25.80;60.10;;;;;;6136671;28;19932;-40
2022/09/02 15:56:24;;;;;;;;;;;25.70;60.10;;;;;;6140630;28;22163;-41
2022/09/02 15:59:26;;;;;;;;;;;25.50;59.90;;;;;;6115734;28;20875;-42
2022/09/02 16:02:28;;;;;;;;;;;25.50;60.50;;;;;;6163529;28;20648;-41
2022/09/02 16:05:31;;;;;;;;;;;25.50;60.00;;;;;;6142704;28;19979;-41
2022/09/02 16:08:32;;;;;;;;;;;25.70;60.00;;;;;;6174375;28;19928;-41
2022/09/02 16:11:36;;;;;;;;;;;25.70;60.00;;;;;;6130178;28;20051;-41
2022/09/02 16:14:37;;;;;;;;;;;25.80;60.10;;;;;;6167358;28;20181;-41
2022/09/02 16:17:40;;;;;;;;;;;25.50;59.80;;;;;;6180071;28;21274;-41
2022/09/02 16:20:42;;;;;;;;;;;25.70;60.00;;;;;;6175963;28;20164;-40
2022/09/02 16:23:44;;;;;;;;;;;25.60;60.00;;;;;;6185932;28;20394;-43
2022/09/02 16:26:45;;;;;;;;;;;25.80;60.00;;;;;;6145787;28;20098;-40
2022/09/02 16:29:46;;;;;;;;;;;25.70;60.00;;;;;;6183198;28;20371;-40
2022/09/02 16:32:50;;;;;;;;;;;25.80;60.10;;;;;;6184761;28;20173;-41
2022/09/02 16:35:55;;;;;;;;;;;25.60;59.70;;;;;;6176136;28;20410;-40
2022/09/02 16:38:57;;;;;;;;;;;25.80;60.20;;;;;;6186402;28;20472;-41
2022/09/02 16:42:02;;;;;;;;;;;25.50;59.80;;;;;;6186962;28;20337;-40
2022/09/02 16:45:04;;;;;;;;;;;25.70;60.00;;;;;;6192981;28;21032;-40
2022/09/02 16:48:06;;;;;;;;;;;25.80;60.00;;;;;;6193549;28;20028;-42
2022/09/02 16:51:07;;;;;;;;;;;26.10;60.20;;;;;;6200043;28;20368;-40
2022/09/02 16:54:09;;;;;;;;;;;25.20;59.70;;;;;;6188326;28;20740;-40
2022/09/02 16:57:18;;;;;;;;;;;25.70;60.00;;;;;;6195373;28;19979;-42
2022/09/02 17:00:22;;;;;;;;;;;25.70;60.00;;;;;;6193943;28;19932;-41
2022/09/02 17:03:23;;;;;;;;;;;25.60;59.90;;;;;;6196289;28;19936;-40
2022/09/02 17:06:26;;;;;;;;;;;25.60;60.00;;;;;;6208458;28;20273;-40
2022/09/02 17:09:27;;;;;;;;;;;25.70;60.10;;;;;;6184973;28;20025;-43
2022/09/02 17:12:28;;;;;;;;;;;25.70;60.20;;;;;;6213131;28;20015;-40
2022/09/02 17:15:30;;;;;;;;;;;25.70;60.10;;;;;;6204986;28;20229;-41
2022/09/02 17:18:31;;;;;;;;;;;25.70;60.00;;;;;;6216329;28;20005;-42
2022/09/02 17:21:34;;;;;;;;;;;25.40;59.90;;;;;;6218366;28;20560;-40
2022/09/02 17:24:37;;;;;;;;;;;25.90;60.20;;;;;;6203245;28;20633;-40
2022/09/02 17:27:40;;;;;;;;;;;26.00;60.20;;;;;;6219544;28;20145;-40
2022/09/02 17:30:42;;;;;;;;;;;25.60;59.90;;;;;;6216160;28;20336;-41
2022/09/02 17:33:43;;;;;;;;;;;25.80;60.20;;;;;;6213477;28;19943;-40
2022/09/02 17:36:46;;;;;;;;;;;25.60;59.90;;;;;;6218052;28;20110;-41
2022/09/02 17:39:48;;;;;;;;;;;25.70;60.00;;;;;;6216930;28;19975;-40
2022/09/02 17:42:49;;;;;;;;;;;25.70;60.00;;;;;;6219424;28;20582;-41
2022/09/02 17:45:53;;;;;;;;;;;25.30;59.90;;;;;;6221626;28;20333;-40
2022/09/02 17:48:56;;;;;;;;;;;26.10;60.30;;;;;;6221108;28;20080;-40
2022/09/02 17:52:18;;;;;;;;;;;25.70;60.20;;;;;;6202337;28;20339;-40
2022/09/02 17:55:20;;;;;;;;;;;25.40;60.00;;;;;;6195607;28;20133;-40
2022/09/02 17:58:22;;;;;;;;;;;25.40;60.00;;;;;;6199326;28;20459;-41